sensor_id;sensor_type;location;lat;lon;timestamp;P1;durP1;ratioP1;P2;durP2;ratioP2
73959;SDS011;62316;48.920;2.342;2023-04-15T00:00:42;25.00;;;20.75;;
73959;SDS011;62316;48.920;2.342;2023-04-15T00:03:07;26.00;;;25.00;;
73959;SDS011;62316;48.920;2.342;2023-04-15T00:05:33;32.00;;;25.50;;
73959;SDS011;62316;48.920;2.342;2023-04-15T00:07:59;27.00;;;24.25;;
73959;SDS011;62316;48.920;2.342;2023-04-15T00:10:25;27.25;;;22.00;;
73959;SDS011;62316;48.920;2.342;2023-04-15T00:12:51;17.50;;;15.00;;
73959;SDS011;62316;48.920;2.342;2023-04-15T00:15:17;17.00;;;12.50;;
73959;SDS011;62316;48.920;2.342;2023-04-15T00:17:42;21.00;;;19.75;;
73959;SDS011;62316;48.920;2.342;2023-04-15T00:20:08;22.25;;;20.25;;
73959;SDS011;62316;48.920;2.342;2023-04-15T00:22:34;18.25;;;18.25;;
73959;SDS011;62316;48.920;2.342;2023-04-15T00:25:00;27.75;;;23.75;;
73959;SDS011;62316;48.920;2.342;2023-04-15T00:27:26;25.00;;;21.00;;
73959;SDS011;62316;48.920;2.342;2023-04-15T00:29:51;28.50;;;22.50;;
73959;SDS011;62316;48.920;2.342;2023-04-15T00:32:20;17.50;;;17.00;;
73959;SDS011;62316;48.920;2.342;2023-04-15T00:34:46;26.50;;;22.75;;
73959;SDS011;62316;48.920;2.342;2023-04-15T00:37:11;20.25;;;18.00;;
73959;SDS011;62316;48.920;2.342;2023-04-15T00:39:37;24.25;;;20.50;;
73959;SDS011;62316;48.920;2.342;2023-04-15T00:42:05;29.50;;;23.25;;
73959;SDS011;62316;48.920;2.342;2023-04-15T00:44:32;25.25;;;23.00;;
73959;SDS011;62316;48.920;2.342;2023-04-15T00:46:58;25.00;;;23.75;;
73959;SDS011;62316;48.920;2.342;2023-04-15T00:49:24;19.75;;;19.75;;
73959;SDS011;62316;48.920;2.342;2023-04-15T00:51:51;24.00;;;19.50;;
73959;SDS011;62316;48.920;2.342;2023-04-15T00:54:16;26.50;;;23.00;;
73959;SDS011;62316;48.920;2.342;2023-04-15T00:56:42;24.50;;;22.25;;
73959;SDS011;62316;48.920;2.342;2023-04-15T00:59:07;24.00;;;22.00;;
73959;SDS011;62316;48.920;2.342;2023-04-15T01:01:34;26.50;;;21.75;;
73959;SDS011;62316;48.920;2.342;2023-04-15T01:04:00;30.25;;;24.00;;
73959;SDS011;62316;48.920;2.342;2023-04-15T01:06:27;27.75;;;25.50;;
73959;SDS011;62316;48.920;2.342;2023-04-15T01:09:51;30.25;;;27.75;;
73959;SDS011;62316;48.920;2.342;2023-04-15T01:12:44;29.50;;;25.00;;
73959;SDS011;62316;48.920;2.342;2023-04-15T01:15:10;26.00;;;23.25;;
73959;SDS011;62316;48.920;2.342;2023-04-15T01:17:36;28.25;;;25.75;;
73959;SDS011;62316;48.920;2.342;2023-04-15T01:20:02;20.25;;;20.25;;
73959;SDS011;62316;48.920;2.342;2023-04-15T01:22:29;24.25;;;21.50;;
73959;SDS011;62316;48.920;2.342;2023-04-15T01:25:05;27.50;;;25.00;;
73959;SDS011;62316;48.920;2.342;2023-04-15T01:27:34;24.25;;;21.50;;
73959;SDS011;62316;48.920;2.342;2023-04-15T01:30:00;24.50;;;21.50;;
73959;SDS011;62316;48.920;2.342;2023-04-15T01:32:26;23.50;;;20.75;;
73959;SDS011;62316;48.920;2.342;2023-04-15T01:34:52;22.00;;;20.25;;
73959;SDS011;62316;48.920;2.342;2023-04-15T01:37:17;22.25;;;20.00;;
73959;SDS011;62316;48.920;2.342;2023-04-15T01:39:42;26.75;;;24.25;;
73959;SDS011;62316;48.920;2.342;2023-04-15T01:42:08;19.50;;;19.50;;
73959;SDS011;62316;48.920;2.342;2023-04-15T01:44:34;20.75;;;20.00;;
73959;SDS011;62316;48.920;2.342;2023-04-15T01:46:59;23.75;;;22.25;;
73959;SDS011;62316;48.920;2.342;2023-04-15T01:49:25;17.00;;;15.00;;
73959;SDS011;62316;48.920;2.342;2023-04-15T01:51:50;26.25;;;22.75;;
73959;SDS011;62316;48.920;2.342;2023-04-15T01:54:15;18.25;;;16.75;;
73959;SDS011;62316;48.920;2.342;2023-04-15T01:56:41;26.75;;;22.25;;
73959;SDS011;62316;48.920;2.342;2023-04-15T01:59:06;23.25;;;21.00;;
73959;SDS011;62316;48.920;2.342;2023-04-15T02:01:31;19.00;;;15.00;;
73959;SDS011;62316;48.920;2.342;2023-04-15T02:03:57;19.00;;;17.00;;
73959;SDS011;62316;48.920;2.342;2023-04-15T02:06:22;21.25;;;19.25;;
73959;SDS011;62316;48.920;2.342;2023-04-15T02:08:48;22.50;;;21.00;;
73959;SDS011;62316;48.920;2.342;2023-04-15T02:11:13;22.75;;;19.25;;
73959;SDS011;62316;48.920;2.342;2023-04-15T02:13:39;19.25;;;18.25;;
73959;SDS011;62316;48.920;2.342;2023-04-15T02:16:13;22.50;;;21.00;;
73959;SDS011;62316;48.920;2.342;2023-04-15T02:18:40;26.25;;;22.50;;
73959;SDS011;62316;48.920;2.342;2023-04-15T02:21:05;22.00;;;21.00;;
73959;SDS011;62316;48.920;2.342;2023-04-15T02:23:31;22.25;;;19.00;;
73959;SDS011;62316;48.920;2.342;2023-04-15T02:25:56;21.75;;;20.75;;
73959;SDS011;62316;48.920;2.342;2023-04-15T02:28:22;23.50;;;18.25;;
73959;SDS011;62316;48.920;2.342;2023-04-15T02:30:48;20.75;;;19.25;;
73959;SDS011;62316;48.920;2.342;2023-04-15T02:33:16;21.00;;;19.00;;
73959;SDS011;62316;48.920;2.342;2023-04-15T02:35:41;28.25;;;26.00;;
73959;SDS011;62316;48.920;2.342;2023-04-15T02:38:09;22.50;;;22.25;;
73959;SDS011;62316;48.920;2.342;2023-04-15T02:40:35;18.00;;;14.00;;
73959;SDS011;62316;48.920;2.342;2023-04-15T02:43:01;26.75;;;23.00;;
73959;SDS011;62316;48.920;2.342;2023-04-15T02:45:27;24.50;;;23.00;;
73959;SDS011;62316;48.920;2.342;2023-04-15T02:47:52;42.75;;;35.00;;
73959;SDS011;62316;48.920;2.342;2023-04-15T02:50:18;25.50;;;22.00;;
73959;SDS011;62316;48.920;2.342;2023-04-15T02:52:44;27.00;;;22.50;;
73959;SDS011;62316;48.920;2.342;2023-04-15T02:55:09;25.50;;;21.75;;
73959;SDS011;62316;48.920;2.342;2023-04-15T02:57:35;27.25;;;24.25;;
73959;SDS011;62316;48.920;2.342;2023-04-15T03:00:03;27.00;;;22.25;;
73959;SDS011;62316;48.920;2.342;2023-04-15T03:02:35;26.25;;;21.00;;
73959;SDS011;62316;48.920;2.342;2023-04-15T03:05:02;25.00;;;20.25;;
73959;SDS011;62316;48.920;2.342;2023-04-15T03:07:28;25.25;;;24.75;;
73959;SDS011;62316;48.920;2.342;2023-04-15T03:09:53;32.00;;;26.75;;
73959;SDS011;62316;48.920;2.342;2023-04-15T03:12:19;29.25;;;25.25;;
73959;SDS011;62316;48.920;2.342;2023-04-15T03:14:45;27.75;;;23.75;;
73959;SDS011;62316;48.920;2.342;2023-04-15T03:17:10;30.50;;;26.00;;
73959;SDS011;62316;48.920;2.342;2023-04-15T03:19:36;26.75;;;24.50;;
73959;SDS011;62316;48.920;2.342;2023-04-15T03:22:01;27.75;;;22.00;;
73959;SDS011;62316;48.920;2.342;2023-04-15T03:24:27;22.50;;;21.25;;
73959;SDS011;62316;48.920;2.342;2023-04-15T03:26:54;23.75;;;22.00;;
73959;SDS011;62316;48.920;2.342;2023-04-15T03:29:20;32.50;;;23.25;;
73959;SDS011;62316;48.920;2.342;2023-04-15T03:31:45;25.75;;;24.00;;
73959;SDS011;62316;48.920;2.342;2023-04-15T03:34:11;25.25;;;23.00;;
73959;SDS011;62316;48.920;2.342;2023-04-15T03:36:36;22.75;;;19.25;;
73959;SDS011;62316;48.920;2.342;2023-04-15T03:39:01;30.00;;;25.50;;
73959;SDS011;62316;48.920;2.342;2023-04-15T03:41:28;17.50;;;16.00;;
73959;SDS011;62316;48.920;2.342;2023-04-15T03:43:53;17.00;;;16.75;;
73959;SDS011;62316;48.920;2.342;2023-04-15T03:46:18;16.50;;;15.25;;
73959;SDS011;62316;48.920;2.342;2023-04-15T03:48:45;17.75;;;16.75;;
73959;SDS011;62316;48.920;2.342;2023-04-15T03:51:11;15.75;;;12.50;;
73959;SDS011;62316;48.920;2.342;2023-04-15T03:53:37;13.50;;;12.00;;
73959;SDS011;62316;48.920;2.342;2023-04-15T03:56:02;11.25;;;9.75;;
73959;SDS011;62316;48.920;2.342;2023-04-15T03:58:27;11.25;;;11.25;;
73959;SDS011;62316;48.920;2.342;2023-04-15T04:00:53;9.75;;;9.50;;
73959;SDS011;62316;48.920;2.342;2023-04-15T04:03:19;9.25;;;6.00;;
73959;SDS011;62316;48.920;2.342;2023-04-15T04:05:44;8.50;;;8.25;;
73959;SDS011;62316;48.920;2.342;2023-04-15T04:08:10;5.67;;;5.67;;
73959;SDS011;62316;48.920;2.342;2023-04-15T04:10:37;8.75;;;6.00;;
73959;SDS011;62316;48.920;2.342;2023-04-15T04:13:03;8.25;;;5.00;;
73959;SDS011;62316;48.920;2.342;2023-04-15T04:15:36;5.50;;;5.50;;
73959;SDS011;62316;48.920;2.342;2023-04-15T04:18:01;11.25;;;9.00;;
73959;SDS011;62316;48.920;2.342;2023-04-15T04:20:27;8.25;;;8.00;;
73959;SDS011;62316;48.920;2.342;2023-04-15T04:22:53;9.75;;;7.00;;
73959;SDS011;62316;48.920;2.342;2023-04-15T04:25:18;8.25;;;7.00;;
73959;SDS011;62316;48.920;2.342;2023-04-15T04:27:43;8.00;;;6.25;;
73959;SDS011;62316;48.920;2.342;2023-04-15T04:30:16;8.00;;;7.00;;
73959;SDS011;62316;48.920;2.342;2023-04-15T04:32:41;6.50;;;6.50;;
73959;SDS011;62316;48.920;2.342;2023-04-15T04:35:07;5.50;;;5.50;;
73959;SDS011;62316;48.920;2.342;2023-04-15T04:37:33;6.00;;;6.00;;
73959;SDS011;62316;48.920;2.342;2023-04-15T04:39:58;6.50;;;6.50;;
73959;SDS011;62316;48.920;2.342;2023-04-15T04:42:23;7.00;;;5.50;;
73959;SDS011;62316;48.920;2.342;2023-04-15T04:44:49;4.50;;;3.00;;
73959;SDS011;62316;48.920;2.342;2023-04-15T04:47:14;4.75;;;3.50;;
73959;SDS011;62316;48.920;2.342;2023-04-15T04:49:40;3.75;;;3.75;;
73959;SDS011;62316;48.920;2.342;2023-04-15T04:52:06;3.50;;;2.50;;
73959;SDS011;62316;48.920;2.342;2023-04-15T04:54:31;5.00;;;4.00;;
73959;SDS011;62316;48.920;2.342;2023-04-15T04:56:57;4.50;;;4.00;;
73959;SDS011;62316;48.920;2.342;2023-04-15T04:59:23;3.75;;;3.75;;
73959;SDS011;62316;48.920;2.342;2023-04-15T05:01:55;2.00;;;2.00;;
73959;SDS011;62316;48.920;2.342;2023-04-15T05:04:21;5.50;;;3.25;;
73959;SDS011;62316;48.920;2.342;2023-04-15T05:06:46;3.00;;;2.00;;
73959;SDS011;62316;48.920;2.342;2023-04-15T05:09:11;6.33;;;3.67;;
73959;SDS011;62316;48.920;2.342;2023-04-15T05:11:37;3.00;;;3.00;;
73959;SDS011;62316;48.920;2.342;2023-04-15T05:14:02;1.67;;;1.67;;
73959;SDS011;62316;48.920;2.342;2023-04-15T05:16:27;1.00;;;1.00;;
73959;SDS011;62316;48.920;2.342;2023-04-15T05:18:53;2.33;;;2.33;;
73959;SDS011;62316;48.920;2.342;2023-04-15T05:21:19;1.00;;;1.00;;
73959;SDS011;62316;48.920;2.342;2023-04-15T05:23:44;2.00;;;2.00;;
73959;SDS011;62316;48.920;2.342;2023-04-15T05:26:10;3.33;;;2.00;;
73959;SDS011;62316;48.920;2.342;2023-04-15T05:28:35;1.75;;;1.00;;
73959;SDS011;62316;48.920;2.342;2023-04-15T05:31:01;6.75;;;2.50;;
73959;SDS011;62316;48.920;2.342;2023-04-15T05:33:26;2.00;;;2.00;;
73959;SDS011;62316;48.920;2.342;2023-04-15T05:35:52;2.00;;;2.00;;
73959;SDS011;62316;48.920;2.342;2023-04-15T05:38:17;2.00;;;2.00;;
73959;SDS011;62316;48.920;2.342;2023-04-15T05:40:42;2.75;;;2.00;;
73959;SDS011;62316;48.920;2.342;2023-04-15T05:43:08;1.00;;;1.00;;
73959;SDS011;62316;48.920;2.342;2023-04-15T05:45:33;3.00;;;3.00;;
73959;SDS011;62316;48.920;2.342;2023-04-15T05:47:59;2.67;;;2.67;;
73959;SDS011;62316;48.920;2.342;2023-04-15T05:50:24;1.50;;;1.50;;
73959;SDS011;62316;48.920;2.342;2023-04-15T05:52:49;2.75;;;2.25;;
73959;SDS011;62316;48.920;2.342;2023-04-15T05:55:15;6.75;;;6.75;;
73959;SDS011;62316;48.920;2.342;2023-04-15T05:57:40;5.00;;;4.00;;
73959;SDS011;62316;48.920;2.342;2023-04-15T06:00:06;3.50;;;3.50;;
73959;SDS011;62316;48.920;2.342;2023-04-15T06:02:32;4.75;;;3.50;;
73959;SDS011;62316;48.920;2.342;2023-04-15T06:04:57;3.33;;;3.33;;
73959;SDS011;62316;48.920;2.342;2023-04-15T06:07:23;3.50;;;3.00;;
73959;SDS011;62316;48.920;2.342;2023-04-15T06:09:48;3.00;;;3.00;;
73959;SDS011;62316;48.920;2.342;2023-04-15T06:12:14;7.00;;;5.50;;
73959;SDS011;62316;48.920;2.342;2023-04-15T06:14:40;1.00;;;1.00;;
73959;SDS011;62316;48.920;2.342;2023-04-15T06:17:05;5.50;;;3.75;;
73959;SDS011;62316;48.920;2.342;2023-04-15T06:19:31;4.00;;;3.33;;
73959;SDS011;62316;48.920;2.342;2023-04-15T06:21:57;3.00;;;3.00;;
73959;SDS011;62316;48.920;2.342;2023-04-15T06:24:22;3.33;;;3.00;;
73959;SDS011;62316;48.920;2.342;2023-04-15T06:26:48;1.67;;;0.33;;
73959;SDS011;62316;48.920;2.342;2023-04-15T06:29:13;2.75;;;2.75;;
73959;SDS011;62316;48.920;2.342;2023-04-15T06:31:39;1.00;;;1.00;;
73959;SDS011;62316;48.920;2.342;2023-04-15T06:34:04;4.00;;;3.00;;
73959;SDS011;62316;48.920;2.342;2023-04-15T06:36:30;2.00;;;2.00;;
73959;SDS011;62316;48.920;2.342;2023-04-15T06:38:56;2.00;;;2.00;;
73959;SDS011;62316;48.920;2.342;2023-04-15T06:41:21;2.75;;;2.00;;
73959;SDS011;62316;48.920;2.342;2023-04-15T06:43:47;4.00;;;3.00;;
73959;SDS011;62316;48.920;2.342;2023-04-15T06:46:12;1.50;;;1.50;;
73959;SDS011;62316;48.920;2.342;2023-04-15T06:48:37;2.00;;;2.00;;
73959;SDS011;62316;48.920;2.342;2023-04-15T06:51:03;0.50;;;0.50;;
73959;SDS011;62316;48.920;2.342;2023-04-15T06:53:29;1.00;;;1.00;;
73959;SDS011;62316;48.920;2.342;2023-04-15T06:55:54;0.00;;;0.00;;
73959;SDS011;62316;48.920;2.342;2023-04-15T06:58:20;2.00;;;0.50;;
73959;SDS011;62316;48.920;2.342;2023-04-15T07:00:45;1.00;;;1.00;;
73959;SDS011;62316;48.920;2.342;2023-04-15T07:03:11;7.75;;;6.00;;
73959;SDS011;62316;48.920;2.342;2023-04-15T07:05:37;2.00;;;2.00;;
73959;SDS011;62316;48.920;2.342;2023-04-15T07:08:04;1.00;;;1.00;;
73959;SDS011;62316;48.920;2.342;2023-04-15T07:10:33;2.00;;;2.00;;
73959;SDS011;62316;48.920;2.342;2023-04-15T07:12:58;1.00;;;1.00;;
73959;SDS011;62316;48.920;2.342;2023-04-15T07:15:24;1.00;;;1.00;;
73959;SDS011;62316;48.920;2.342;2023-04-15T07:17:49;0.00;;;0.00;;
73959;SDS011;62316;48.920;2.342;2023-04-15T07:20:15;1.33;;;1.00;;
73959;SDS011;62316;48.920;2.342;2023-04-15T07:22:40;3.00;;;0.25;;
73959;SDS011;62316;48.920;2.342;2023-04-15T07:25:06;0.00;;;0.00;;
73959;SDS011;62316;48.920;2.342;2023-04-15T07:27:35;0.00;;;0.00;;
73959;SDS011;62316;48.920;2.342;2023-04-15T07:30:11;1.00;;;0.00;;
73959;SDS011;62316;48.920;2.342;2023-04-15T07:32:37;0.00;;;0.00;;
73959;SDS011;62316;48.920;2.342;2023-04-15T07:35:02;0.00;;;0.00;;
73959;SDS011;62316;48.920;2.342;2023-04-15T07:37:28;0.00;;;0.00;;
73959;SDS011;62316;48.920;2.342;2023-04-15T07:39:54;0.00;;;0.00;;
73959;SDS011;62316;48.920;2.342;2023-04-15T07:42:19;1.00;;;0.00;;
73959;SDS011;62316;48.920;2.342;2023-04-15T07:44:46;1.00;;;1.00;;
73959;SDS011;62316;48.920;2.342;2023-04-15T07:47:11;0.00;;;0.00;;
73959;SDS011;62316;48.920;2.342;2023-04-15T07:49:36;1.00;;;0.00;;
73959;SDS011;62316;48.920;2.342;2023-04-15T07:52:02;1.00;;;1.00;;
73959;SDS011;62316;48.920;2.342;2023-04-15T07:54:28;1.00;;;1.00;;
73959;SDS011;62316;48.920;2.342;2023-04-15T07:56:53;0.00;;;0.00;;
73959;SDS011;62316;48.920;2.342;2023-04-15T07:59:20;0.00;;;0.00;;
73959;SDS011;62316;48.920;2.342;2023-04-15T08:01:45;0.25;;;0.25;;
73959;SDS011;62316;48.920;2.342;2023-04-15T08:04:10;1.00;;;1.00;;
73959;SDS011;62316;48.920;2.342;2023-04-15T08:06:37;0.00;;;0.00;;
73959;SDS011;62316;48.920;2.342;2023-04-15T08:09:03;1.00;;;1.00;;
73959;SDS011;62316;48.920;2.342;2023-04-15T08:11:29;1.00;;;1.00;;
73959;SDS011;62316;48.920;2.342;2023-04-15T08:13:55;2.00;;;2.00;;
73959;SDS011;62316;48.920;2.342;2023-04-15T08:16:24;1.75;;;1.00;;
73959;SDS011;62316;48.920;2.342;2023-04-15T08:18:54;4.00;;;3.00;;
73959;SDS011;62316;48.920;2.342;2023-04-15T08:21:19;1.50;;;1.00;;
73959;SDS011;62316;48.920;2.342;2023-04-15T08:23:46;3.25;;;3.00;;
73959;SDS011;62316;48.920;2.342;2023-04-15T08:26:12;1.00;;;1.00;;
73959;SDS011;62316;48.920;2.342;2023-04-15T08:28:38;2.25;;;1.50;;
73959;SDS011;62316;48.920;2.342;2023-04-15T08:31:07;1.75;;;1.75;;
73959;SDS011;62316;48.920;2.342;2023-04-15T08:33:33;1.00;;;1.00;;
73959;SDS011;62316;48.920;2.342;2023-04-15T08:35:59;2.00;;;2.00;;
73959;SDS011;62316;48.920;2.342;2023-04-15T08:38:24;2.00;;;2.00;;
73959;SDS011;62316;48.920;2.342;2023-04-15T08:40:49;1.00;;;1.00;;
73959;SDS011;62316;48.920;2.342;2023-04-15T08:43:23;3.00;;;3.00;;
73959;SDS011;62316;48.920;2.342;2023-04-15T08:45:52;3.75;;;2.75;;
73959;SDS011;62316;48.920;2.342;2023-04-15T08:48:18;3.25;;;1.00;;
73959;SDS011;62316;48.920;2.342;2023-04-15T08:50:44;2.25;;;1.50;;
73959;SDS011;62316;48.920;2.342;2023-04-15T08:53:11;1.50;;;1.50;;
73959;SDS011;62316;48.920;2.342;2023-04-15T08:55:39;2.00;;;2.00;;
73959;SDS011;62316;48.920;2.342;2023-04-15T08:58:08;2.00;;;2.00;;
73959;SDS011;62316;48.920;2.342;2023-04-15T09:00:35;1.67;;;1.67;;
73959;SDS011;62316;48.920;2.342;2023-04-15T09:03:00;3.67;;;2.00;;
73959;SDS011;62316;48.920;2.342;2023-04-15T09:05:26;2.00;;;2.00;;
73959;SDS011;62316;48.920;2.342;2023-04-15T09:07:51;1.25;;;1.25;;
73959;SDS011;62316;48.920;2.342;2023-04-15T09:10:16;1.00;;;1.00;;
73959;SDS011;62316;48.920;2.342;2023-04-15T09:12:42;2.00;;;2.00;;
73959;SDS011;62316;48.920;2.342;2023-04-15T09:15:09;2.00;;;1.00;;
73959;SDS011;62316;48.920;2.342;2023-04-15T09:17:36;2.50;;;2.50;;
73959;SDS011;62316;48.920;2.342;2023-04-15T09:20:07;1.00;;;1.00;;
73959;SDS011;62316;48.920;2.342;2023-04-15T09:22:34;1.00;;;1.00;;
73959;SDS011;62316;48.920;2.342;2023-04-15T09:25:00;1.33;;;0.67;;
73959;SDS011;62316;48.920;2.342;2023-04-15T09:27:25;3.00;;;3.00;;
73959;SDS011;62316;48.920;2.342;2023-04-15T09:29:52;1.00;;;1.00;;
73959;SDS011;62316;48.920;2.342;2023-04-15T09:32:18;2.00;;;2.00;;
73959;SDS011;62316;48.920;2.342;2023-04-15T09:34:45;2.00;;;2.00;;
73959;SDS011;62316;48.920;2.342;2023-04-15T09:37:12;3.00;;;1.33;;
73959;SDS011;62316;48.920;2.342;2023-04-15T09:39:46;2.50;;;1.00;;
73959;SDS011;62316;48.920;2.342;2023-04-15T09:42:14;10.50;;;7.00;;
73959;SDS011;62316;48.920;2.342;2023-04-15T09:44:41;1.00;;;1.00;;
73959;SDS011;62316;48.920;2.342;2023-04-15T09:47:07;4.00;;;3.25;;
73959;SDS011;62316;48.920;2.342;2023-04-15T09:49:32;4.00;;;2.00;;
73959;SDS011;62316;48.920;2.342;2023-04-15T09:52:01;1.50;;;1.00;;
73959;SDS011;62316;48.920;2.342;2023-04-15T09:54:32;2.67;;;2.00;;
73959;SDS011;62316;48.920;2.342;2023-04-15T09:57:04;2.50;;;2.50;;
73959;SDS011;62316;48.920;2.342;2023-04-15T09:59:31;2.00;;;2.00;;
73959;SDS011;62316;48.920;2.342;2023-04-15T10:01:56;1.67;;;1.00;;
73959;SDS011;62316;48.920;2.342;2023-04-15T10:04:22;1.00;;;1.00;;
73959;SDS011;62316;48.920;2.342;2023-04-15T10:06:47;2.33;;;1.00;;
73959;SDS011;62316;48.920;2.342;2023-04-15T10:09:13;3.33;;;2.00;;
73959;SDS011;62316;48.920;2.342;2023-04-15T10:11:38;1.00;;;1.00;;
73959;SDS011;62316;48.920;2.342;2023-04-15T10:14:04;1.00;;;1.00;;
73959;SDS011;62316;48.920;2.342;2023-04-15T10:16:38;1.33;;;1.33;;
73959;SDS011;62316;48.920;2.342;2023-04-15T10:19:12;3.00;;;1.67;;
73959;SDS011;62316;48.920;2.342;2023-04-15T10:21:40;3.33;;;2.33;;
73959;SDS011;62316;48.920;2.342;2023-04-15T10:24:06;2.33;;;2.33;;
73959;SDS011;62316;48.920;2.342;2023-04-15T10:26:32;3.00;;;3.00;;
73959;SDS011;62316;48.920;2.342;2023-04-15T10:28:58;2.67;;;2.67;;
73959;SDS011;62316;48.920;2.342;2023-04-15T10:31:25;1.00;;;1.00;;
73959;SDS011;62316;48.920;2.342;2023-04-15T10:33:50;2.67;;;1.67;;
73959;SDS011;62316;48.920;2.342;2023-04-15T10:36:16;2.33;;;1.00;;
73959;SDS011;62316;48.920;2.342;2023-04-15T10:38:43;2.67;;;2.00;;
73959;SDS011;62316;48.920;2.342;2023-04-15T10:41:13;2.33;;;2.33;;
73959;SDS011;62316;48.920;2.342;2023-04-15T10:43:53;1.00;;;1.00;;
73959;SDS011;62316;48.920;2.342;2023-04-15T10:46:21;3.00;;;3.00;;
73959;SDS011;62316;48.920;2.342;2023-04-15T10:48:48;2.00;;;2.00;;
73959;SDS011;62316;48.920;2.342;2023-04-15T10:51:15;2.67;;;2.67;;
73959;SDS011;62316;48.920;2.342;2023-04-15T10:53:41;1.67;;;1.67;;
73959;SDS011;62316;48.920;2.342;2023-04-15T10:56:07;1.00;;;1.00;;
73959;SDS011;62316;48.920;2.342;2023-04-15T10:58:42;4.00;;;4.00;;
73959;SDS011;62316;48.920;2.342;2023-04-15T11:01:15;2.00;;;2.00;;
73959;SDS011;62316;48.920;2.342;2023-04-15T11:03:47;2.00;;;2.00;;
73959;SDS011;62316;48.920;2.342;2023-04-15T11:06:13;3.00;;;3.00;;
73959;SDS011;62316;48.920;2.342;2023-04-15T11:14:26;2.00;;;2.00;;
73959;SDS011;62316;48.920;2.342;2023-04-15T11:16:51;1.00;;;1.00;;
73959;SDS011;62316;48.920;2.342;2023-04-15T11:19:17;0.00;;;0.00;;
73959;SDS011;62316;48.920;2.342;2023-04-15T11:21:42;4.00;;;3.00;;
73959;SDS011;62316;48.920;2.342;2023-04-15T11:24:08;3.25;;;3.25;;
73959;SDS011;62316;48.920;2.342;2023-04-15T11:26:33;3.00;;;2.00;;
73959;SDS011;62316;48.920;2.342;2023-04-15T11:28:59;2.00;;;1.00;;
73959;SDS011;62316;48.920;2.342;2023-04-15T11:31:25;3.00;;;2.75;;
73959;SDS011;62316;48.920;2.342;2023-04-15T11:33:59;3.00;;;3.00;;
73959;SDS011;62316;48.920;2.342;2023-04-15T11:36:26;2.00;;;2.00;;
73959;SDS011;62316;48.920;2.342;2023-04-15T11:38:58;3.00;;;2.67;;
73959;SDS011;62316;48.920;2.342;2023-04-15T11:41:58;1.33;;;1.33;;
73959;SDS011;62316;48.920;2.342;2023-04-15T11:44:36;1.67;;;1.67;;
73959;SDS011;62316;48.920;2.342;2023-04-15T11:47:25;1.33;;;1.33;;
73959;SDS011;62316;48.920;2.342;2023-04-15T11:52:40;3.00;;;3.00;;
73959;SDS011;62316;48.920;2.342;2023-04-15T11:55:07;4.00;;;3.00;;
73959;SDS011;62316;48.920;2.342;2023-04-15T11:57:35;2.00;;;2.00;;
73959;SDS011;62316;48.920;2.342;2023-04-15T12:00:01;4.33;;;3.00;;
73959;SDS011;62316;48.920;2.342;2023-04-15T12:02:35;2.00;;;2.00;;
73959;SDS011;62316;48.920;2.342;2023-04-15T12:05:04;3.00;;;3.00;;
73959;SDS011;62316;48.920;2.342;2023-04-15T12:07:30;3.00;;;3.00;;
73959;SDS011;62316;48.920;2.342;2023-04-15T12:09:56;2.33;;;1.33;;
73959;SDS011;62316;48.920;2.342;2023-04-15T12:12:25;3.00;;;3.00;;
73959;SDS011;62316;48.920;2.342;2023-04-15T12:14:51;2.67;;;2.00;;
73959;SDS011;62316;48.920;2.342;2023-04-15T12:17:17;2.67;;;2.67;;
73959;SDS011;62316;48.920;2.342;2023-04-15T12:19:42;1.00;;;1.00;;
73959;SDS011;62316;48.920;2.342;2023-04-15T12:22:10;2.67;;;1.00;;
73959;SDS011;62316;48.920;2.342;2023-04-15T12:24:37;2.33;;;2.33;;
73959;SDS011;62316;48.920;2.342;2023-04-15T12:27:06;3.00;;;2.00;;
73959;SDS011;62316;48.920;2.342;2023-04-15T12:29:33;2.75;;;1.75;;
73959;SDS011;62316;48.920;2.342;2023-04-15T12:32:09;1.25;;;1.25;;
73959;SDS011;62316;48.920;2.342;2023-04-15T12:34:43;2.67;;;2.00;;
73959;SDS011;62316;48.920;2.342;2023-04-15T12:37:13;2.00;;;2.00;;
73959;SDS011;62316;48.920;2.342;2023-04-15T12:39:39;2.00;;;2.00;;
73959;SDS011;62316;48.920;2.342;2023-04-15T12:42:06;2.00;;;2.00;;
73959;SDS011;62316;48.920;2.342;2023-04-15T12:44:32;1.33;;;1.33;;
73959;SDS011;62316;48.920;2.342;2023-04-15T12:46:58;2.50;;;2.50;;
73959;SDS011;62316;48.920;2.342;2023-04-15T12:49:24;3.00;;;3.00;;
73959;SDS011;62316;48.920;2.342;2023-04-15T12:51:52;1.67;;;1.67;;
73959;SDS011;62316;48.920;2.342;2023-04-15T12:54:19;3.00;;;2.00;;
73959;SDS011;62316;48.920;2.342;2023-04-15T12:56:45;1.00;;;1.00;;
73959;SDS011;62316;48.920;2.342;2023-04-15T12:59:12;2.33;;;2.33;;
73959;SDS011;62316;48.920;2.342;2023-04-15T13:01:38;3.00;;;2.00;;
73959;SDS011;62316;48.920;2.342;2023-04-15T13:04:04;1.33;;;1.33;;
73959;SDS011;62316;48.920;2.342;2023-04-15T13:06:30;2.00;;;2.00;;
73959;SDS011;62316;48.920;2.342;2023-04-15T13:08:57;1.00;;;1.00;;
73959;SDS011;62316;48.920;2.342;2023-04-15T13:11:28;1.00;;;1.00;;
73959;SDS011;62316;48.920;2.342;2023-04-15T13:14:04;0.33;;;0.33;;
73959;SDS011;62316;48.920;2.342;2023-04-15T13:16:31;0.00;;;0.00;;
73959;SDS011;62316;48.920;2.342;2023-04-15T13:18:58;1.00;;;1.00;;
73959;SDS011;62316;48.920;2.342;2023-04-15T13:21:23;2.67;;;1.67;;
73959;SDS011;62316;48.920;2.342;2023-04-15T13:23:49;1.67;;;1.67;;
73959;SDS011;62316;48.920;2.342;2023-04-15T13:26:16;2.00;;;2.00;;
73959;SDS011;62316;48.920;2.342;2023-04-15T13:28:42;2.00;;;2.00;;
73959;SDS011;62316;48.920;2.342;2023-04-15T13:31:07;2.00;;;1.00;;
73959;SDS011;62316;48.920;2.342;2023-04-15T13:33:33;2.50;;;2.50;;
73959;SDS011;62316;48.920;2.342;2023-04-15T13:35:58;2.00;;;2.00;;
73959;SDS011;62316;48.920;2.342;2023-04-15T13:38:24;1.00;;;1.00;;
73959;SDS011;62316;48.920;2.342;2023-04-15T13:40:49;2.00;;;2.00;;
73959;SDS011;62316;48.920;2.342;2023-04-15T13:43:15;1.67;;;1.67;;
73959;SDS011;62316;48.920;2.342;2023-04-15T13:45:41;3.00;;;2.00;;
73959;SDS011;62316;48.920;2.342;2023-04-15T13:48:07;3.67;;;2.00;;
73959;SDS011;62316;48.920;2.342;2023-04-15T13:50:43;2.00;;;2.00;;
73959;SDS011;62316;48.920;2.342;2023-04-15T13:56:53;2.00;;;2.00;;
73959;SDS011;62316;48.920;2.342;2023-04-15T13:59:20;2.67;;;2.67;;
73959;SDS011;62316;48.920;2.342;2023-04-15T14:01:45;3.00;;;2.00;;
73959;SDS011;62316;48.920;2.342;2023-04-15T14:04:11;1.00;;;1.00;;
73959;SDS011;62316;48.920;2.342;2023-04-15T14:06:37;2.00;;;0.67;;
73959;SDS011;62316;48.920;2.342;2023-04-15T14:09:02;3.00;;;2.00;;
73959;SDS011;62316;48.920;2.342;2023-04-15T14:11:28;2.00;;;2.00;;
73959;SDS011;62316;48.920;2.342;2023-04-15T14:13:53;2.00;;;2.00;;
73959;SDS011;62316;48.920;2.342;2023-04-15T14:16:19;2.00;;;2.00;;
73959;SDS011;62316;48.920;2.342;2023-04-15T14:18:44;0.33;;;0.33;;
73959;SDS011;62316;48.920;2.342;2023-04-15T14:21:10;1.00;;;1.00;;
73959;SDS011;62316;48.920;2.342;2023-04-15T14:23:35;3.00;;;2.00;;
73959;SDS011;62316;48.920;2.342;2023-04-15T14:26:07;2.00;;;2.00;;
73959;SDS011;62316;48.920;2.342;2023-04-15T14:28:33;2.00;;;2.00;;
73959;SDS011;62316;48.920;2.342;2023-04-15T14:30:58;2.00;;;2.00;;
73959;SDS011;62316;48.920;2.342;2023-04-15T14:33:23;2.33;;;2.33;;
73959;SDS011;62316;48.920;2.342;2023-04-15T14:35:56;2.67;;;2.67;;
73959;SDS011;62316;48.920;2.342;2023-04-15T14:38:22;4.33;;;2.00;;
73959;SDS011;62316;48.920;2.342;2023-04-15T14:40:47;4.00;;;3.00;;
73959;SDS011;62316;48.920;2.342;2023-04-15T14:43:13;2.33;;;2.00;;
73959;SDS011;62316;48.920;2.342;2023-04-15T14:45:38;2.33;;;2.33;;
73959;SDS011;62316;48.920;2.342;2023-04-15T14:48:04;1.00;;;1.00;;
73959;SDS011;62316;48.920;2.342;2023-04-15T14:50:33;3.67;;;3.00;;